New Yoshino — JG5527 — position and weather

sailwx.info

Track history (hours):
 
Tides and Currents Weather Stations Pressure Air Temp Water Temp Dewpoint Dewpoint Depression Visibility Wind Speed Wind Dir Waves Ship Positions

New Yoshino

Last reported at 2016-Dec-06 18:04 UTC. Time now 2016-Dec-08 00:12 UTC.
Position N 35°16' E 139°46'.

Length 102 m; draft 6.6 m.

Type: Tanker. MMSI: 431300724.

Date/timePositionNaut miles runAvg speedWind from/ knotsBaromVisibWave heightAir tempDewpointWater temp
2016-Dec-06 18:04N 35°16' E 139°46'612.7
2016-Dec-06 17:33N 35°22' E 139°42'10 9.7
2016-Dec-06 16:33N 35°31' E 139°46'0 0.0
2016-Dec-06 10:23N 35°31' E 139°46'5 5.6
2016-Dec-06 09:34N 35°27' E 139°43'4 4.1
2016-Dec-06 08:34N 35°24' E 139°45'0 0.0
2016-Dec-06 07:30N 35°24' E 139°45'7 7.6
2016-Dec-06 06:32N 35°16' E 139°46'  
2016-Nov-29 07:05N 35°01' E 139°43'713.8
2016-Nov-29 06:33N 35°08' E 139°45'1212.1
2016-Nov-29 05:33N 35°20' E 139°43'1212.3
2016-Nov-29 04:33N 35°30' E 139°52'6 0.8
2016-Nov-28 21:31N 35°31' E 139°59'0 0.0
2016-Nov-28 20:19N 35°31' E 139°59'0 0.0
2016-Nov-28 19:31N 35°31' E 139°59'0 0.0
2016-Nov-28 18:31N 35°31' E 139°59'0 0.0
2016-Nov-28 17:31N 35°31' E 139°59'0 0.0
2016-Nov-28 16:31N 35°31' E 139°59'0 0.0
2016-Nov-28 15:28N 35°31' E 139°59'0 0.0
2016-Nov-28 14:31N 35°31' E 139°59'0 0.0
2016-Nov-28 13:25N 35°31' E 139°59'0 0.0
2016-Nov-28 12:28N 35°31' E 139°59'0 0.1
2016-Nov-28 11:31N 35°31' E 139°59'0 0.1
2016-Nov-28 10:32N 35°32' E 139°59'9 9.4
2016-Nov-28 09:34N 35°30' E 139°48'2 1.9
2016-Nov-28 08:31N 35°30' E 139°45'0 0.0
2016-Nov-28 07:31N 35°30' E 139°45'0 0.0
2016-Nov-28 06:31N 35°30' E 139°45'0 0.0
2016-Nov-28 05:31N 35°30' E 139°45'3 3.0
2016-Nov-28 04:33N 35°29' E 139°42'1010.1
2016-Nov-28 03:33N 35°19' E 139°44'1111.3
2016-Nov-28 02:33N 35°08' E 139°44'  
Track history (hours):
 
Tides and Currents Weather Stations Pressure Air Temp Water Temp Dewpoint Dewpoint Depression Visibility Wind Speed Wind Dir Waves Ship Positions

New Yoshino

Last reported at 2016-Dec-06 18:04 UTC. Time now 2016-Dec-08 00:12 UTC.
Position N 35°16' E 139°46'.

Length 102 m; draft 6.6 m.

Type: Tanker. MMSI: 431300724.

Date/timePositionNaut miles runAvg speedWind from/ knotsBaromVisibWave heightAir tempDewpointWater temp
2016-Dec-06 18:04N 35°16' E 139°46'612.7
2016-Dec-06 17:33N 35°22' E 139°42'10 9.7
2016-Dec-06 16:33N 35°31' E 139°46'0 0.0
2016-Dec-06 10:23N 35°31' E 139°46'5 5.6
2016-Dec-06 09:34N 35°27' E 139°43'4 4.1
2016-Dec-06 08:34N 35°24' E 139°45'0 0.0
2016-Dec-06 07:30N 35°24' E 139°45'7 7.6
2016-Dec-06 06:32N 35°16' E 139°46'  
2016-Nov-29 07:05N 35°01' E 139°43'713.8
2016-Nov-29 06:33N 35°08' E 139°45'1212.1
2016-Nov-29 05:33N 35°20' E 139°43'1212.3
2016-Nov-29 04:33N 35°30' E 139°52'6 0.8
2016-Nov-28 21:31N 35°31' E 139°59'0 0.0
2016-Nov-28 20:19N 35°31' E 139°59'0 0.0
2016-Nov-28 19:31N 35°31' E 139°59'0 0.0
2016-Nov-28 18:31N 35°31' E 139°59'0 0.0
2016-Nov-28 17:31N 35°31' E 139°59'0 0.0
2016-Nov-28 16:31N 35°31' E 139°59'0 0.0
2016-Nov-28 15:28N 35°31' E 139°59'0 0.0
2016-Nov-28 14:31N 35°31' E 139°59'0 0.0
2016-Nov-28 13:25N 35°31' E 139°59'0 0.0
2016-Nov-28 12:28N 35°31' E 139°59'0 0.1
2016-Nov-28 11:31N 35°31' E 139°59'0 0.1
2016-Nov-28 10:32N 35°32' E 139°59'9 9.4
2016-Nov-28 09:34N 35°30' E 139°48'2 1.9
2016-Nov-28 08:31N 35°30' E 139°45'0 0.0
2016-Nov-28 07:31N 35°30' E 139°45'0 0.0
2016-Nov-28 06:31N 35°30' E 139°45'0 0.0
2016-Nov-28 05:31N 35°30' E 139°45'3 3.0
2016-Nov-28 04:33N 35°29' E 139°42'1010.1
2016-Nov-28 03:33N 35°19' E 139°44'1111.3
2016-Nov-28 02:33N 35°08' E 139°44'  

Dump ship's entire track history